sensor_id;sensor_type;location;lat;lon;timestamp;P1;durP1;ratioP1;P2;durP2;ratioP2
85472;SDS011;75874;41.386;22.136;2024-02-14T00:06:46;5.20;;;3.88;;
85472;SDS011;75874;41.386;22.136;2024-02-14T00:17:31;5.82;;;4.07;;
85472;SDS011;75874;41.386;22.136;2024-02-14T00:20:02;4.78;;;3.80;;
85472;SDS011;75874;41.386;22.136;2024-02-14T01:16:50;5.25;;;3.85;;
85472;SDS011;75874;41.386;22.136;2024-02-14T01:19:16;6.88;;;4.00;;
85472;SDS011;75874;41.386;22.136;2024-02-14T01:21:44;6.30;;;3.80;;
85472;SDS011;75874;41.386;22.136;2024-02-14T01:24:13;5.03;;;3.88;;
85472;SDS011;75874;41.386;22.136;2024-02-14T01:26:40;4.57;;;3.38;;
85472;SDS011;75874;41.386;22.136;2024-02-14T01:29:05;5.43;;;3.47;;
85472;SDS011;75874;41.386;22.136;2024-02-14T01:31:32;5.47;;;4.47;;
85472;SDS011;75874;41.386;22.136;2024-02-14T01:33:59;4.88;;;3.45;;
85472;SDS011;75874;41.386;22.136;2024-02-14T01:36:29;5.18;;;3.42;;
85472;SDS011;75874;41.386;22.136;2024-02-14T01:44:14;4.40;;;3.47;;
85472;SDS011;75874;41.386;22.136;2024-02-14T01:46:43;5.20;;;3.72;;
85472;SDS011;75874;41.386;22.136;2024-02-14T01:49:12;15.05;;;4.20;;
85472;SDS011;75874;41.386;22.136;2024-02-14T01:51:42;5.80;;;3.75;;
85472;SDS011;75874;41.386;22.136;2024-02-14T01:54:10;5.80;;;4.38;;
85472;SDS011;75874;41.386;22.136;2024-02-14T01:56:37;4.47;;;3.40;;
85472;SDS011;75874;41.386;22.136;2024-02-14T01:59:04;5.40;;;4.10;;
85472;SDS011;75874;41.386;22.136;2024-02-14T02:01:34;5.20;;;3.92;;
85472;SDS011;75874;41.386;22.136;2024-02-14T02:04:00;5.57;;;3.97;;
85472;SDS011;75874;41.386;22.136;2024-02-14T02:06:26;5.43;;;3.30;;
85472;SDS011;75874;41.386;22.136;2024-02-14T02:08:53;4.97;;;3.53;;
85472;SDS011;75874;41.386;22.136;2024-02-14T02:11:19;5.40;;;4.03;;
85472;SDS011;75874;41.386;22.136;2024-02-14T02:13:45;5.55;;;3.60;;
85472;SDS011;75874;41.386;22.136;2024-02-14T02:16:11;4.75;;;3.45;;
85472;SDS011;75874;41.386;22.136;2024-02-14T02:18:37;6.47;;;5.20;;
85472;SDS011;75874;41.386;22.136;2024-02-14T02:21:03;5.68;;;4.28;;
85472;SDS011;75874;41.386;22.136;2024-02-14T02:23:45;5.78;;;4.15;;
85472;SDS011;75874;41.386;22.136;2024-02-14T02:26:12;5.25;;;4.32;;
85472;SDS011;75874;41.386;22.136;2024-02-14T02:28:38;6.25;;;4.18;;
85472;SDS011;75874;41.386;22.136;2024-02-14T02:31:05;11.07;;;4.72;;
85472;SDS011;75874;41.386;22.136;2024-02-14T02:33:30;5.70;;;4.45;;
85472;SDS011;75874;41.386;22.136;2024-02-14T02:35:56;5.65;;;4.05;;
85472;SDS011;75874;41.386;22.136;2024-02-14T02:38:23;11.65;;;4.65;;
85472;SDS011;75874;41.386;22.136;2024-02-14T02:40:49;7.43;;;4.75;;
85472;SDS011;75874;41.386;22.136;2024-02-14T02:43:14;6.68;;;5.38;;
85472;SDS011;75874;41.386;22.136;2024-02-14T02:45:40;6.07;;;4.93;;
85472;SDS011;75874;41.386;22.136;2024-02-14T02:48:07;6.70;;;5.03;;
85472;SDS011;75874;41.386;22.136;2024-02-14T02:50:33;6.50;;;4.72;;
85472;SDS011;75874;41.386;22.136;2024-02-14T02:52:59;6.63;;;4.50;;
85472;SDS011;75874;41.386;22.136;2024-02-14T02:55:24;5.95;;;4.22;;
85472;SDS011;75874;41.386;22.136;2024-02-14T02:57:51;5.18;;;3.97;;
85472;SDS011;75874;41.386;22.136;2024-02-14T03:00:18;4.97;;;4.05;;
85472;SDS011;75874;41.386;22.136;2024-02-14T03:02:46;6.43;;;5.00;;
85472;SDS011;75874;41.386;22.136;2024-02-14T03:05:12;7.30;;;4.60;;
85472;SDS011;75874;41.386;22.136;2024-02-14T03:07:48;6.97;;;5.72;;
85472;SDS011;75874;41.386;22.136;2024-02-14T03:10:16;8.25;;;5.25;;
85472;SDS011;75874;41.386;22.136;2024-02-14T03:12:48;6.53;;;5.32;;
85472;SDS011;75874;41.386;22.136;2024-02-14T03:15:14;7.78;;;5.65;;
85472;SDS011;75874;41.386;22.136;2024-02-14T03:17:40;6.53;;;4.75;;
85472;SDS011;75874;41.386;22.136;2024-02-14T03:20:07;6.22;;;4.88;;
85472;SDS011;75874;41.386;22.136;2024-02-14T03:22:42;5.57;;;4.50;;
85472;SDS011;75874;41.386;22.136;2024-02-14T03:25:19;7.90;;;5.47;;
85472;SDS011;75874;41.386;22.136;2024-02-14T03:33:51;8.07;;;5.32;;
85472;SDS011;75874;41.386;22.136;2024-02-14T03:36:18;7.97;;;5.88;;
85472;SDS011;75874;41.386;22.136;2024-02-14T03:38:44;6.70;;;4.97;;
85472;SDS011;75874;41.386;22.136;2024-02-14T03:41:11;6.68;;;4.72;;
85472;SDS011;75874;41.386;22.136;2024-02-14T03:43:40;6.68;;;4.38;;
85472;SDS011;75874;41.386;22.136;2024-02-14T03:46:06;9.73;;;5.75;;
85472;SDS011;75874;41.386;22.136;2024-02-14T03:48:31;7.07;;;4.65;;
85472;SDS011;75874;41.386;22.136;2024-02-14T03:50:57;7.20;;;5.40;;
85472;SDS011;75874;41.386;22.136;2024-02-14T03:53:23;7.28;;;4.85;;
85472;SDS011;75874;41.386;22.136;2024-02-14T03:55:49;11.75;;;5.95;;
85472;SDS011;75874;41.386;22.136;2024-02-14T03:58:15;8.65;;;5.07;;
85472;SDS011;75874;41.386;22.136;2024-02-14T04:00:45;8.93;;;5.43;;
85472;SDS011;75874;41.386;22.136;2024-02-14T04:03:13;7.55;;;5.82;;
85472;SDS011;75874;41.386;22.136;2024-02-14T04:05:39;6.55;;;5.28;;
85472;SDS011;75874;41.386;22.136;2024-02-14T04:08:05;8.50;;;4.75;;
85472;SDS011;75874;41.386;22.136;2024-02-14T04:10:37;8.10;;;5.68;;
85472;SDS011;75874;41.386;22.136;2024-02-14T04:13:04;7.40;;;5.40;;
85472;SDS011;75874;41.386;22.136;2024-02-14T04:15:33;7.43;;;4.45;;
85472;SDS011;75874;41.386;22.136;2024-02-14T04:17:59;7.20;;;5.43;;
85472;SDS011;75874;41.386;22.136;2024-02-14T04:20:25;6.45;;;4.75;;
85472;SDS011;75874;41.386;22.136;2024-02-14T04:22:52;7.55;;;4.88;;
85472;SDS011;75874;41.386;22.136;2024-02-14T04:25:17;12.13;;;7.03;;
85472;SDS011;75874;41.386;22.136;2024-02-14T04:27:43;9.13;;;4.85;;
85472;SDS011;75874;41.386;22.136;2024-02-14T04:30:09;6.07;;;4.40;;
85472;SDS011;75874;41.386;22.136;2024-02-14T04:32:35;7.30;;;4.80;;
85472;SDS011;75874;41.386;22.136;2024-02-14T04:35:01;12.57;;;5.80;;
85472;SDS011;75874;41.386;22.136;2024-02-14T04:37:27;7.63;;;4.95;;
85472;SDS011;75874;41.386;22.136;2024-02-14T04:39:54;8.23;;;5.50;;
85472;SDS011;75874;41.386;22.136;2024-02-14T04:42:20;8.50;;;5.40;;
85472;SDS011;75874;41.386;22.136;2024-02-14T04:44:45;11.05;;;4.90;;
85472;SDS011;75874;41.386;22.136;2024-02-14T04:47:11;7.82;;;5.47;;
85472;SDS011;75874;41.386;22.136;2024-02-14T04:49:37;8.82;;;5.72;;
85472;SDS011;75874;41.386;22.136;2024-02-14T04:52:03;7.88;;;5.78;;
85472;SDS011;75874;41.386;22.136;2024-02-14T04:54:30;8.73;;;5.38;;
85472;SDS011;75874;41.386;22.136;2024-02-14T04:56:57;10.35;;;6.13;;
85472;SDS011;75874;41.386;22.136;2024-02-14T04:59:22;6.85;;;4.93;;
85472;SDS011;75874;41.386;22.136;2024-02-14T05:01:48;9.30;;;5.75;;
85472;SDS011;75874;41.386;22.136;2024-02-14T05:04:15;9.48;;;5.68;;
85472;SDS011;75874;41.386;22.136;2024-02-14T05:06:41;12.10;;;6.82;;
85472;SDS011;75874;41.386;22.136;2024-02-14T05:09:07;8.02;;;5.25;;
85472;SDS011;75874;41.386;22.136;2024-02-14T05:11:36;10.18;;;6.50;;
85472;SDS011;75874;41.386;22.136;2024-02-14T05:14:02;7.88;;;5.53;;
85472;SDS011;75874;41.386;22.136;2024-02-14T05:16:29;8.40;;;5.95;;
85472;SDS011;75874;41.386;22.136;2024-02-14T05:18:54;8.48;;;5.47;;
85472;SDS011;75874;41.386;22.136;2024-02-14T05:21:20;8.80;;;5.82;;
85472;SDS011;75874;41.386;22.136;2024-02-14T05:27:15;12.45;;;6.05;;
85472;SDS011;75874;41.386;22.136;2024-02-14T05:29:40;10.68;;;7.03;;
85472;SDS011;75874;41.386;22.136;2024-02-14T05:32:06;11.48;;;6.45;;
85472;SDS011;75874;41.386;22.136;2024-02-14T05:34:34;10.23;;;6.18;;
85472;SDS011;75874;41.386;22.136;2024-02-14T05:37:00;8.23;;;5.53;;
85472;SDS011;75874;41.386;22.136;2024-02-14T05:39:26;8.25;;;5.68;;
85472;SDS011;75874;41.386;22.136;2024-02-14T05:41:51;12.05;;;6.50;;
85472;SDS011;75874;41.386;22.136;2024-02-14T05:44:19;7.57;;;5.78;;
85472;SDS011;75874;41.386;22.136;2024-02-14T05:46:50;13.68;;;5.47;;
85472;SDS011;75874;41.386;22.136;2024-02-14T05:49:16;11.35;;;6.25;;
85472;SDS011;75874;41.386;22.136;2024-02-14T05:51:41;8.32;;;5.38;;
85472;SDS011;75874;41.386;22.136;2024-02-14T05:54:07;9.13;;;6.03;;
85472;SDS011;75874;41.386;22.136;2024-02-14T05:56:33;7.60;;;5.70;;
85472;SDS011;75874;41.386;22.136;2024-02-14T05:58:58;12.60;;;5.53;;
85472;SDS011;75874;41.386;22.136;2024-02-14T06:01:24;9.80;;;5.75;;
85472;SDS011;75874;41.386;22.136;2024-02-14T06:03:51;9.55;;;5.85;;
85472;SDS011;75874;41.386;22.136;2024-02-14T06:09:38;8.23;;;5.60;;
85472;SDS011;75874;41.386;22.136;2024-02-14T06:12:04;9.43;;;6.18;;
85472;SDS011;75874;41.386;22.136;2024-02-14T06:14:31;8.25;;;5.38;;
85472;SDS011;75874;41.386;22.136;2024-02-14T06:16:59;8.60;;;5.25;;
85472;SDS011;75874;41.386;22.136;2024-02-14T06:19:26;7.88;;;5.60;;
85472;SDS011;75874;41.386;22.136;2024-02-14T06:21:52;8.70;;;5.65;;
85472;SDS011;75874;41.386;22.136;2024-02-14T06:24:17;7.28;;;4.90;;
85472;SDS011;75874;41.386;22.136;2024-02-14T06:26:44;5.80;;;4.18;;
85472;SDS011;75874;41.386;22.136;2024-02-14T06:29:10;7.65;;;5.72;;
85472;SDS011;75874;41.386;22.136;2024-02-14T06:31:50;10.45;;;6.38;;
85472;SDS011;75874;41.386;22.136;2024-02-14T06:34:16;11.25;;;5.75;;
85472;SDS011;75874;41.386;22.136;2024-02-14T06:36:41;6.40;;;4.80;;
85472;SDS011;75874;41.386;22.136;2024-02-14T06:39:07;8.13;;;4.68;;
85472;SDS011;75874;41.386;22.136;2024-02-14T06:41:33;8.85;;;6.05;;
85472;SDS011;75874;41.386;22.136;2024-02-14T06:43:58;8.23;;;5.47;;
85472;SDS011;75874;41.386;22.136;2024-02-14T06:46:24;10.27;;;5.45;;
85472;SDS011;75874;41.386;22.136;2024-02-14T06:54:59;6.47;;;5.00;;
85472;SDS011;75874;41.386;22.136;2024-02-14T06:57:25;6.95;;;4.90;;
85472;SDS011;75874;41.386;22.136;2024-02-14T06:59:51;8.95;;;4.78;;
85472;SDS011;75874;41.386;22.136;2024-02-14T07:02:18;9.75;;;5.95;;
85472;SDS011;75874;41.386;22.136;2024-02-14T07:04:43;7.75;;;4.55;;
85472;SDS011;75874;41.386;22.136;2024-02-14T07:07:09;8.32;;;5.18;;
85472;SDS011;75874;41.386;22.136;2024-02-14T07:09:35;6.47;;;4.70;;
85472;SDS011;75874;41.386;22.136;2024-02-14T07:12:13;7.80;;;5.68;;
85472;SDS011;75874;41.386;22.136;2024-02-14T07:14:39;7.63;;;5.78;;
85472;SDS011;75874;41.386;22.136;2024-02-14T07:17:05;7.47;;;5.68;;
85472;SDS011;75874;41.386;22.136;2024-02-14T07:19:31;8.65;;;4.70;;
85472;SDS011;75874;41.386;22.136;2024-02-14T07:21:57;8.65;;;5.47;;
85472;SDS011;75874;41.386;22.136;2024-02-14T07:24:22;6.90;;;4.78;;
85472;SDS011;75874;41.386;22.136;2024-02-14T07:26:48;9.20;;;5.10;;
85472;SDS011;75874;41.386;22.136;2024-02-14T07:29:14;6.70;;;4.93;;
85472;SDS011;75874;41.386;22.136;2024-02-14T07:31:39;9.23;;;4.82;;
85472;SDS011;75874;41.386;22.136;2024-02-14T07:34:06;7.57;;;4.90;;
85472;SDS011;75874;41.386;22.136;2024-02-14T07:36:32;8.60;;;5.38;;
85472;SDS011;75874;41.386;22.136;2024-02-14T07:38:58;8.93;;;5.53;;
85472;SDS011;75874;41.386;22.136;2024-02-14T07:41:24;7.57;;;5.50;;
85472;SDS011;75874;41.386;22.136;2024-02-14T07:43:49;6.28;;;4.28;;
85472;SDS011;75874;41.386;22.136;2024-02-14T07:46:18;6.53;;;5.00;;
85472;SDS011;75874;41.386;22.136;2024-02-14T07:48:47;6.63;;;4.70;;
85472;SDS011;75874;41.386;22.136;2024-02-14T07:51:14;7.15;;;4.07;;
85472;SDS011;75874;41.386;22.136;2024-02-14T07:53:39;7.82;;;3.95;;
85472;SDS011;75874;41.386;22.136;2024-02-14T07:56:05;6.43;;;4.75;;
85472;SDS011;75874;41.386;22.136;2024-02-14T07:58:31;6.70;;;4.22;;
85472;SDS011;75874;41.386;22.136;2024-02-14T08:00:56;8.95;;;5.22;;
85472;SDS011;75874;41.386;22.136;2024-02-14T08:03:22;5.93;;;3.83;;
85472;SDS011;75874;41.386;22.136;2024-02-14T08:05:49;8.70;;;4.82;;
85472;SDS011;75874;41.386;22.136;2024-02-14T08:08:16;7.40;;;4.20;;
85472;SDS011;75874;41.386;22.136;2024-02-14T08:10:42;5.75;;;3.67;;
85472;SDS011;75874;41.386;22.136;2024-02-14T08:13:07;5.63;;;4.15;;
85472;SDS011;75874;41.386;22.136;2024-02-14T08:15:33;5.50;;;4.28;;
85472;SDS011;75874;41.386;22.136;2024-02-14T08:17:59;5.80;;;3.65;;
85472;SDS011;75874;41.386;22.136;2024-02-14T08:20:25;7.40;;;4.30;;
85472;SDS011;75874;41.386;22.136;2024-02-14T08:22:51;6.95;;;4.30;;
85472;SDS011;75874;41.386;22.136;2024-02-14T08:25:18;4.60;;;3.60;;
85472;SDS011;75874;41.386;22.136;2024-02-14T08:27:43;5.88;;;3.95;;
85472;SDS011;75874;41.386;22.136;2024-02-14T08:30:09;8.48;;;4.57;;
85472;SDS011;75874;41.386;22.136;2024-02-14T08:32:37;7.70;;;4.35;;
85472;SDS011;75874;41.386;22.136;2024-02-14T08:35:02;7.22;;;4.05;;
85472;SDS011;75874;41.386;22.136;2024-02-14T08:37:28;5.97;;;4.45;;
85472;SDS011;75874;41.386;22.136;2024-02-14T08:39:54;6.15;;;4.88;;
85472;SDS011;75874;41.386;22.136;2024-02-14T08:42:20;5.25;;;3.67;;
85472;SDS011;75874;41.386;22.136;2024-02-14T08:44:46;4.63;;;3.17;;
85472;SDS011;75874;41.386;22.136;2024-02-14T08:47:11;7.25;;;3.75;;
85472;SDS011;75874;41.386;22.136;2024-02-14T08:49:40;6.68;;;3.85;;
85472;SDS011;75874;41.386;22.136;2024-02-14T08:52:06;8.82;;;4.70;;
85472;SDS011;75874;41.386;22.136;2024-02-14T08:54:32;5.43;;;3.70;;
85472;SDS011;75874;41.386;22.136;2024-02-14T08:56:57;5.60;;;3.55;;
85472;SDS011;75874;41.386;22.136;2024-02-14T08:59:24;7.78;;;4.20;;
85472;SDS011;75874;41.386;22.136;2024-02-14T09:01:50;7.32;;;4.10;;
85472;SDS011;75874;41.386;22.136;2024-02-14T09:04:15;7.22;;;4.57;;
85472;SDS011;75874;41.386;22.136;2024-02-14T09:06:41;6.82;;;3.88;;
85472;SDS011;75874;41.386;22.136;2024-02-14T09:09:07;6.32;;;3.30;;
85472;SDS011;75874;41.386;22.136;2024-02-14T09:11:35;5.30;;;3.45;;
85472;SDS011;75874;41.386;22.136;2024-02-14T09:14:01;5.50;;;3.83;;
85472;SDS011;75874;41.386;22.136;2024-02-14T09:16:34;5.28;;;4.10;;
85472;SDS011;75874;41.386;22.136;2024-02-14T09:19:00;5.43;;;3.80;;
85472;SDS011;75874;41.386;22.136;2024-02-14T09:21:31;5.35;;;3.78;;
85472;SDS011;75874;41.386;22.136;2024-02-14T09:24:08;7.05;;;3.90;;
85472;SDS011;75874;41.386;22.136;2024-02-14T09:26:34;7.35;;;4.05;;
85472;SDS011;75874;41.386;22.136;2024-02-14T09:28:59;6.55;;;3.65;;
85472;SDS011;75874;41.386;22.136;2024-02-14T09:31:25;5.97;;;4.30;;
85472;SDS011;75874;41.386;22.136;2024-02-14T09:33:51;4.90;;;3.67;;
85472;SDS011;75874;41.386;22.136;2024-02-14T09:36:22;5.95;;;4.03;;
85472;SDS011;75874;41.386;22.136;2024-02-14T09:38:49;5.32;;;3.63;;
85472;SDS011;75874;41.386;22.136;2024-02-14T09:41:15;5.93;;;4.20;;
85472;SDS011;75874;41.386;22.136;2024-02-14T09:43:51;8.23;;;4.15;;
85472;SDS011;75874;41.386;22.136;2024-02-14T09:46:17;5.78;;;4.00;;
85472;SDS011;75874;41.386;22.136;2024-02-14T09:48:43;5.05;;;3.85;;
85472;SDS011;75874;41.386;22.136;2024-02-14T09:51:11;7.25;;;4.10;;
85472;SDS011;75874;41.386;22.136;2024-02-14T09:53:38;5.03;;;3.53;;
85472;SDS011;75874;41.386;22.136;2024-02-14T09:56:05;5.47;;;3.83;;
85472;SDS011;75874;41.386;22.136;2024-02-14T09:58:31;8.77;;;4.35;;
85472;SDS011;75874;41.386;22.136;2024-02-14T10:04:19;6.75;;;4.00;;
85472;SDS011;75874;41.386;22.136;2024-02-14T10:06:45;5.72;;;4.10;;
85472;SDS011;75874;41.386;22.136;2024-02-14T10:09:11;5.68;;;4.10;;
85472;SDS011;75874;41.386;22.136;2024-02-14T10:11:37;6.43;;;3.88;;
85472;SDS011;75874;41.386;22.136;2024-02-14T10:14:06;6.13;;;3.60;;
85472;SDS011;75874;41.386;22.136;2024-02-14T10:16:34;6.63;;;4.15;;
85472;SDS011;75874;41.386;22.136;2024-02-14T10:19:01;5.55;;;4.00;;
85472;SDS011;75874;41.386;22.136;2024-02-14T10:21:27;6.63;;;3.90;;
85472;SDS011;75874;41.386;22.136;2024-02-14T10:23:54;5.82;;;3.83;;
85472;SDS011;75874;41.386;22.136;2024-02-14T10:26:23;9.05;;;3.97;;
85472;SDS011;75874;41.386;22.136;2024-02-14T10:28:48;7.82;;;3.83;;
85472;SDS011;75874;41.386;22.136;2024-02-14T10:31:17;6.15;;;4.00;;
85472;SDS011;75874;41.386;22.136;2024-02-14T10:33:42;5.90;;;3.60;;
85472;SDS011;75874;41.386;22.136;2024-02-14T10:36:08;5.80;;;3.72;;
85472;SDS011;75874;41.386;22.136;2024-02-14T10:38:37;6.10;;;4.15;;
85472;SDS011;75874;41.386;22.136;2024-02-14T10:41:04;5.10;;;3.80;;
85472;SDS011;75874;41.386;22.136;2024-02-14T10:43:30;6.05;;;3.80;;
85472;SDS011;75874;41.386;22.136;2024-02-14T10:45:56;5.47;;;3.92;;
85472;SDS011;75874;41.386;22.136;2024-02-14T10:48:25;5.82;;;3.45;;
85472;SDS011;75874;41.386;22.136;2024-02-14T10:50:59;5.55;;;3.58;;
85472;SDS011;75874;41.386;22.136;2024-02-14T10:56:34;5.47;;;3.88;;
85472;SDS011;75874;41.386;22.136;2024-02-14T10:59:02;6.53;;;3.38;;
85472;SDS011;75874;41.386;22.136;2024-02-14T11:01:29;6.22;;;3.67;;
85472;SDS011;75874;41.386;22.136;2024-02-14T11:03:58;5.95;;;3.30;;
85472;SDS011;75874;41.386;22.136;2024-02-14T11:06:26;4.72;;;3.58;;
85472;SDS011;75874;41.386;22.136;2024-02-14T11:09:01;4.72;;;3.50;;
85472;SDS011;75874;41.386;22.136;2024-02-14T11:11:35;4.60;;;3.00;;
85472;SDS011;75874;41.386;22.136;2024-02-14T11:14:02;4.05;;;3.45;;
85472;SDS011;75874;41.386;22.136;2024-02-14T11:16:30;6.03;;;2.95;;
85472;SDS011;75874;41.386;22.136;2024-02-14T11:19:11;5.85;;;3.15;;
85472;SDS011;75874;41.386;22.136;2024-02-14T11:21:41;5.57;;;3.50;;
85472;SDS011;75874;41.386;22.136;2024-02-14T11:24:12;5.43;;;3.35;;
85472;SDS011;75874;41.386;22.136;2024-02-14T11:26:48;6.07;;;3.50;;
85472;SDS011;75874;41.386;22.136;2024-02-14T11:29:18;3.67;;;2.90;;
85472;SDS011;75874;41.386;22.136;2024-02-14T11:31:44;5.53;;;3.22;;
85472;SDS011;75874;41.386;22.136;2024-02-14T11:34:11;5.38;;;2.92;;
85472;SDS011;75874;41.386;22.136;2024-02-14T11:36:38;5.80;;;3.53;;
85472;SDS011;75874;41.386;22.136;2024-02-14T11:39:07;5.43;;;3.25;;
85472;SDS011;75874;41.386;22.136;2024-02-14T11:41:33;6.82;;;3.58;;
85472;SDS011;75874;41.386;22.136;2024-02-14T11:44:06;6.63;;;3.17;;
85472;SDS011;75874;41.386;22.136;2024-02-14T11:46:32;4.05;;;3.00;;
85472;SDS011;75874;41.386;22.136;2024-02-14T11:48:59;6.07;;;2.80;;
85472;SDS011;75874;41.386;22.136;2024-02-14T11:51:30;6.13;;;3.22;;
85472;SDS011;75874;41.386;22.136;2024-02-14T11:53:58;6.60;;;3.05;;
85472;SDS011;75874;41.386;22.136;2024-02-14T11:56:35;9.68;;;3.47;;
85472;SDS011;75874;41.386;22.136;2024-02-14T11:59:03;5.22;;;2.92;;
85472;SDS011;75874;41.386;22.136;2024-02-14T12:01:34;3.92;;;3.25;;
85472;SDS011;75874;41.386;22.136;2024-02-14T12:04:02;4.95;;;3.75;;
85472;SDS011;75874;41.386;22.136;2024-02-14T12:06:30;4.35;;;3.45;;
85472;SDS011;75874;41.386;22.136;2024-02-14T12:09:00;5.03;;;3.30;;
85472;SDS011;75874;41.386;22.136;2024-02-14T12:11:33;3.58;;;2.78;;
85472;SDS011;75874;41.386;22.136;2024-02-14T12:14:05;4.75;;;3.30;;
85472;SDS011;75874;41.386;22.136;2024-02-14T12:16:36;5.45;;;3.42;;
85472;SDS011;75874;41.386;22.136;2024-02-14T12:19:05;4.38;;;3.08;;
85472;SDS011;75874;41.386;22.136;2024-02-14T12:21:38;4.53;;;3.35;;
85472;SDS011;75874;41.386;22.136;2024-02-14T12:24:14;4.13;;;2.70;;
85472;SDS011;75874;41.386;22.136;2024-02-14T12:26:40;4.53;;;2.88;;
85472;SDS011;75874;41.386;22.136;2024-02-14T12:29:07;3.35;;;2.50;;
85472;SDS011;75874;41.386;22.136;2024-02-14T12:31:36;3.63;;;2.55;;
85472;SDS011;75874;41.386;22.136;2024-02-14T12:34:02;4.85;;;3.10;;
85472;SDS011;75874;41.386;22.136;2024-02-14T12:36:32;4.32;;;2.92;;
85472;SDS011;75874;41.386;22.136;2024-02-14T12:38:59;6.95;;;2.97;;
85472;SDS011;75874;41.386;22.136;2024-02-14T12:43:55;4.13;;;3.00;;
85472;SDS011;75874;41.386;22.136;2024-02-14T12:46:22;4.20;;;2.83;;
85472;SDS011;75874;41.386;22.136;2024-02-14T12:48:48;3.13;;;2.45;;
85472;SDS011;75874;41.386;22.136;2024-02-14T12:51:14;3.95;;;2.42;;
85472;SDS011;75874;41.386;22.136;2024-02-14T12:53:40;5.10;;;3.30;;
85472;SDS011;75874;41.386;22.136;2024-02-14T12:56:06;4.78;;;2.78;;
85472;SDS011;75874;41.386;22.136;2024-02-14T12:58:33;5.15;;;3.17;;
85472;SDS011;75874;41.386;22.136;2024-02-14T13:00:59;4.30;;;2.75;;
85472;SDS011;75874;41.386;22.136;2024-02-14T13:03:26;3.95;;;2.55;;
85472;SDS011;75874;41.386;22.136;2024-02-14T13:05:53;4.03;;;2.72;;
85472;SDS011;75874;41.386;22.136;2024-02-14T13:08:19;5.72;;;2.92;;
85472;SDS011;75874;41.386;22.136;2024-02-14T13:10:46;4.80;;;2.80;;
85472;SDS011;75874;41.386;22.136;2024-02-14T13:13:12;4.35;;;2.58;;
85472;SDS011;75874;41.386;22.136;2024-02-14T13:15:39;3.47;;;2.58;;
85472;SDS011;75874;41.386;22.136;2024-02-14T13:18:07;3.80;;;2.65;;
85472;SDS011;75874;41.386;22.136;2024-02-14T13:20:32;5.00;;;2.88;;
85472;SDS011;75874;41.386;22.136;2024-02-14T13:22:58;3.80;;;2.58;;
85472;SDS011;75874;41.386;22.136;2024-02-14T13:25:24;6.03;;;2.83;;
85472;SDS011;75874;41.386;22.136;2024-02-14T13:27:50;4.57;;;2.95;;
85472;SDS011;75874;41.386;22.136;2024-02-14T13:30:15;3.50;;;2.70;;
85472;SDS011;75874;41.386;22.136;2024-02-14T13:32:41;4.93;;;2.50;;
85472;SDS011;75874;41.386;22.136;2024-02-14T13:35:07;5.57;;;3.33;;
85472;SDS011;75874;41.386;22.136;2024-02-14T13:37:33;4.30;;;2.78;;
85472;SDS011;75874;41.386;22.136;2024-02-14T13:40:00;5.07;;;3.28;;
85472;SDS011;75874;41.386;22.136;2024-02-14T13:42:29;4.20;;;2.75;;
85472;SDS011;75874;41.386;22.136;2024-02-14T13:44:55;5.30;;;2.83;;
85472;SDS011;75874;41.386;22.136;2024-02-14T13:50:12;6.28;;;3.10;;
85472;SDS011;75874;41.386;22.136;2024-02-14T13:52:38;4.90;;;2.90;;
85472;SDS011;75874;41.386;22.136;2024-02-14T13:55:04;4.50;;;3.45;;
85472;SDS011;75874;41.386;22.136;2024-02-14T13:57:37;4.80;;;3.08;;
85472;SDS011;75874;41.386;22.136;2024-02-14T14:00:05;4.22;;;3.75;;
85472;SDS011;75874;41.386;22.136;2024-02-14T14:02:34;5.88;;;3.33;;
85472;SDS011;75874;41.386;22.136;2024-02-14T14:05:06;6.45;;;3.20;;
85472;SDS011;75874;41.386;22.136;2024-02-14T14:07:33;3.85;;;3.13;;
85472;SDS011;75874;41.386;22.136;2024-02-14T14:10:02;4.50;;;3.22;;
85472;SDS011;75874;41.386;22.136;2024-02-14T14:12:29;4.40;;;3.30;;
85472;SDS011;75874;41.386;22.136;2024-02-14T14:14:54;4.72;;;3.55;;
85472;SDS011;75874;41.386;22.136;2024-02-14T14:17:20;4.20;;;3.60;;
85472;SDS011;75874;41.386;22.136;2024-02-14T14:19:46;4.45;;;3.03;;
85472;SDS011;75874;41.386;22.136;2024-02-14T14:22:12;5.63;;;2.90;;
85472;SDS011;75874;41.386;22.136;2024-02-14T14:24:37;4.75;;;2.78;;
85472;SDS011;75874;41.386;22.136;2024-02-14T14:27:03;5.10;;;4.63;;
85472;SDS011;75874;41.386;22.136;2024-02-14T14:29:29;5.20;;;3.00;;
85472;SDS011;75874;41.386;22.136;2024-02-14T14:31:54;4.03;;;2.22;;
85472;SDS011;75874;41.386;22.136;2024-02-14T14:34:20;4.22;;;2.63;;
85472;SDS011;75874;41.386;22.136;2024-02-14T14:36:45;5.75;;;2.83;;
85472;SDS011;75874;41.386;22.136;2024-02-14T14:39:11;3.30;;;2.15;;
85472;SDS011;75874;41.386;22.136;2024-02-14T14:41:37;4.68;;;2.60;;
85472;SDS011;75874;41.386;22.136;2024-02-14T14:44:03;6.13;;;3.03;;
85472;SDS011;75874;41.386;22.136;2024-02-14T14:46:29;3.60;;;2.72;;
85472;SDS011;75874;41.386;22.136;2024-02-14T14:48:57;4.65;;;2.95;;
85472;SDS011;75874;41.386;22.136;2024-02-14T14:51:23;5.20;;;3.05;;
85472;SDS011;75874;41.386;22.136;2024-02-14T14:53:48;4.65;;;2.92;;
85472;SDS011;75874;41.386;22.136;2024-02-14T14:56:14;5.75;;;3.40;;
85472;SDS011;75874;41.386;22.136;2024-02-14T14:58:40;5.07;;;2.95;;
85472;SDS011;75874;41.386;22.136;2024-02-14T15:01:08;3.42;;;2.47;;
85472;SDS011;75874;41.386;22.136;2024-02-14T15:03:34;3.70;;;2.40;;
85472;SDS011;75874;41.386;22.136;2024-02-14T15:06:00;5.30;;;3.08;;
85472;SDS011;75874;41.386;22.136;2024-02-14T15:08:25;4.47;;;2.70;;
85472;SDS011;75874;41.386;22.136;2024-02-14T15:10:53;3.75;;;2.67;;
85472;SDS011;75874;41.386;22.136;2024-02-14T15:13:21;3.75;;;2.65;;
85472;SDS011;75874;41.386;22.136;2024-02-14T15:15:48;4.45;;;2.58;;
85472;SDS011;75874;41.386;22.136;2024-02-14T15:18:14;5.20;;;2.58;;
85472;SDS011;75874;41.386;22.136;2024-02-14T15:20:39;4.07;;;2.60;;
85472;SDS011;75874;41.386;22.136;2024-02-14T15:23:05;6.80;;;3.15;;
85472;SDS011;75874;41.386;22.136;2024-02-14T15:25:33;3.63;;;2.33;;
85472;SDS011;75874;41.386;22.136;2024-02-14T15:28:05;4.50;;;2.78;;
85472;SDS011;75874;41.386;22.136;2024-02-14T15:30:42;3.45;;;2.63;;
85472;SDS011;75874;41.386;22.136;2024-02-14T15:33:26;4.68;;;2.83;;
85472;SDS011;75874;41.386;22.136;2024-02-14T15:35:53;5.50;;;2.92;;
85472;SDS011;75874;41.386;22.136;2024-02-14T15:38:20;4.10;;;2.85;;
85472;SDS011;75874;41.386;22.136;2024-02-14T15:40:48;4.90;;;2.67;;
85472;SDS011;75874;41.386;22.136;2024-02-14T15:43:18;5.75;;;3.05;;
85472;SDS011;75874;41.386;22.136;2024-02-14T15:45:45;3.75;;;2.63;;
85472;SDS011;75874;41.386;22.136;2024-02-14T15:48:10;4.20;;;2.45;;
85472;SDS011;75874;41.386;22.136;2024-02-14T15:50:38;4.45;;;2.63;;
85472;SDS011;75874;41.386;22.136;2024-02-14T15:53:04;6.55;;;2.92;;
85472;SDS011;75874;41.386;22.136;2024-02-14T15:55:33;4.80;;;2.65;;
85472;SDS011;75874;41.386;22.136;2024-02-14T15:58:02;5.57;;;3.05;;
85472;SDS011;75874;41.386;22.136;2024-02-14T16:00:28;5.63;;;3.13;;
85472;SDS011;75874;41.386;22.136;2024-02-14T16:05:23;5.18;;;2.85;;
85472;SDS011;75874;41.386;22.136;2024-02-14T16:07:49;5.03;;;2.70;;
85472;SDS011;75874;41.386;22.136;2024-02-14T16:10:14;9.75;;;3.80;;
85472;SDS011;75874;41.386;22.136;2024-02-14T16:12:44;6.47;;;2.85;;
85472;SDS011;75874;41.386;22.136;2024-02-14T16:15:12;5.53;;;3.95;;
85472;SDS011;75874;41.386;22.136;2024-02-14T16:17:38;4.95;;;3.03;;
85472;SDS011;75874;41.386;22.136;2024-02-14T16:20:07;5.32;;;3.67;;